createdAt,value
2023-01-28T00:00:01.185Z,7.40
2023-01-28T00:02:31.102Z,7.40
2023-01-28T00:04:59.436Z,6.80
2023-01-28T00:07:27.915Z,6.80
2023-01-28T00:09:56.236Z,7.90
2023-01-28T00:12:24.671Z,8.20
2023-01-28T00:14:52.983Z,7.20
2023-01-28T00:17:21.363Z,7.10
2023-01-28T00:19:51.087Z,7.00
2023-01-28T00:22:19.499Z,7.00
2023-01-28T00:24:47.786Z,7.00
2023-01-28T00:27:16.141Z,7.00
2023-01-28T00:29:44.442Z,7.10
2023-01-28T00:32:12.780Z,6.90
2023-01-28T00:34:41.103Z,6.70
2023-01-28T00:37:11.088Z,7.80
2023-01-28T00:39:39.412Z,8.20
2023-01-28T00:42:07.769Z,8.60
2023-01-28T00:44:36.434Z,8.00
2023-01-28T00:47:04.799Z,7.90
2023-01-28T00:49:33.134Z,8.20
2023-01-28T00:52:01.461Z,8.40
2023-01-28T00:54:32.336Z,8.10
2023-01-28T00:57:00.642Z,7.40
2023-01-28T00:59:29.045Z,7.70
2023-01-28T01:02:12.183Z,8.10
2023-01-28T01:04:41.208Z,6.90
2023-01-28T01:07:09.597Z,6.50
2023-01-28T01:09:39.450Z,7.50
2023-01-28T01:12:09.020Z,7.20
2023-01-28T01:14:37.353Z,7.70
2023-01-28T01:17:06.088Z,7.50
2023-01-28T01:19:34.419Z,8.20
2023-01-28T01:27:05.957Z,8.50
2023-01-28T01:29:34.375Z,7.60
2023-01-28T01:32:02.818Z,7.80
2023-01-28T01:34:31.245Z,8.40
2023-01-28T01:37:00.212Z,8.20
2023-01-28T01:39:28.533Z,8.30
2023-01-28T01:41:56.874Z,6.80
2023-01-28T01:45:06.492Z,7.40
2023-01-28T01:47:43.112Z,7.20
2023-01-28T01:50:19.709Z,7.40
2023-01-28T01:52:51.815Z,8.10
2023-01-28T01:55:25.267Z,8.40
2023-01-28T01:57:56.681Z,8.30
2023-01-28T02:00:26.632Z,7.60
2023-01-28T02:02:56.760Z,7.40
2023-01-28T02:05:25.141Z,6.70
2023-01-28T02:08:17.046Z,7.60
2023-01-28T02:10:46.044Z,7.40
2023-01-28T02:13:16.044Z,6.60
2023-01-28T02:15:47.297Z,6.70
2023-01-28T02:18:15.843Z,7.30
2023-01-28T02:21:22.426Z,7.40
2023-01-28T02:24:07.958Z,7.40
2023-01-28T02:29:39.615Z,6.20
2023-01-28T02:32:16.234Z,6.30
2023-01-28T02:39:57.902Z,5.20
2023-01-28T02:50:20.234Z,7.10
2023-01-28T02:55:58.691Z,6.40
2023-01-28T02:58:38.903Z,8.20
2023-01-28T03:01:20.154Z,7.90
2023-01-28T03:04:00.322Z,8.10
2023-01-28T03:06:36.478Z,8.30
2023-01-28T03:09:23.744Z,7.80
2023-01-28T03:12:15.239Z,8.30
2023-01-28T03:15:04.896Z,7.90
2023-01-28T03:18:01.286Z,8.00
2023-01-28T03:35:03.883Z,7.80
2023-01-28T03:37:33.535Z,7.80
2023-01-28T03:40:07.245Z,7.80
2023-01-28T03:45:05.503Z,8.40
2023-01-28T04:07:48.225Z,8.90
2023-01-28T04:10:17.563Z,8.00
2023-01-28T04:12:45.854Z,7.00
2023-01-28T04:15:16.929Z,7.40
2023-01-28T04:22:48.202Z,7.90
2023-01-28T04:25:17.004Z,8.30
2023-01-28T04:27:45.535Z,8.50
2023-01-28T04:30:14.233Z,8.20
2023-01-28T04:32:42.870Z,8.50
2023-01-28T04:35:11.628Z,8.60
2023-01-28T04:37:42.709Z,8.20
2023-01-28T04:42:41.125Z,8.30
2023-01-28T04:52:36.898Z,7.70
2023-01-28T04:55:07.888Z,7.80
2023-01-28T05:19:58.789Z,8.40
2023-01-28T05:22:27.095Z,8.90
2023-01-28T05:59:41.616Z,8.80
2023-01-28T06:04:40.205Z,7.40
2023-01-28T06:07:08.525Z,7.10
2023-01-28T06:09:36.812Z,7.90
2023-01-28T06:12:05.495Z,8.20
2023-01-28T06:19:30.925Z,8.30
2023-01-28T06:22:00.616Z,7.90
2023-01-28T06:44:21.133Z,8.30
2023-01-28T06:46:49.524Z,7.80
2023-01-28T06:49:17.867Z,8.10
2023-01-28T06:51:46.189Z,8.30
2023-01-28T07:33:57.250Z,8.40
2023-01-28T07:46:20.350Z,8.40
2023-01-28T07:51:18.565Z,7.50
2023-01-28T07:53:46.861Z,7.40
2023-01-28T07:56:15.186Z,7.00
2023-01-28T07:58:43.459Z,7.30
2023-01-28T08:01:11.772Z,8.00
2023-01-28T08:03:40.108Z,8.40
2023-01-28T08:06:11.636Z,8.40
2023-01-28T08:08:39.994Z,8.00
2023-01-28T08:11:10.827Z,8.50
2023-01-28T08:13:39.295Z,8.70
2023-01-28T08:16:08.880Z,8.20
2023-01-28T08:18:37.193Z,8.20
2023-01-28T08:21:05.676Z,8.40
2023-01-28T08:23:35.628Z,8.10
2023-01-28T08:26:03.891Z,8.40
2023-01-28T08:28:32.230Z,7.90
2023-01-28T08:31:01.759Z,7.70
2023-01-28T08:33:30.362Z,8.20
2023-01-28T08:35:58.696Z,8.40
2023-01-28T08:38:27.019Z,7.90
2023-01-28T08:40:59.045Z,8.10
2023-01-28T08:43:27.772Z,7.20
2023-01-28T08:45:56.031Z,7.70
2023-01-28T08:48:24.319Z,8.30
2023-01-28T08:50:52.699Z,8.40
2023-01-28T08:53:21.961Z,8.40
2023-01-28T08:55:50.278Z,8.40
2023-01-28T08:58:20.141Z,7.80
2023-01-28T09:00:49.352Z,8.10
2023-01-28T09:03:18.430Z,8.50
2023-01-28T09:05:46.926Z,8.70
2023-01-28T09:08:16.652Z,8.30
2023-01-28T09:10:45.076Z,8.50
2023-01-28T09:13:15.959Z,8.20
2023-01-28T09:15:45.772Z,6.90
2023-01-28T09:18:14.209Z,8.00
2023-01-28T09:20:42.611Z,8.50
2023-01-28T09:23:11.687Z,8.70
2023-01-28T09:25:39.985Z,8.50
2023-01-28T09:28:09.050Z,8.30
2023-01-28T09:30:38.219Z,8.60
2023-01-28T09:33:09.124Z,8.70
